createdAt,value
2023-03-01T00:00:08.180Z,66.00
2023-03-01T00:00:39.911Z,65.39
2023-03-01T00:01:20.580Z,65.47
2023-03-01T00:01:52.237Z,65.47
2023-03-01T00:02:24.004Z,65.64
2023-03-01T00:02:56.136Z,65.69
2023-03-01T00:03:28.365Z,65.49
2023-03-01T00:04:00.695Z,65.20
2023-03-01T00:04:32.408Z,65.84
2023-03-01T00:05:05.451Z,65.54
2023-03-01T00:05:37.148Z,65.46
2023-03-01T00:06:09.274Z,65.78
2023-03-01T00:06:42.956Z,65.95
2023-03-01T00:07:14.604Z,65.48
2023-03-01T00:07:46.284Z,65.94
2023-03-01T00:08:17.948Z,65.86
2023-03-01T00:08:50.381Z,65.88
2023-03-01T00:09:22.027Z,65.32
2023-03-01T00:09:53.721Z,65.07
2023-03-01T00:10:25.391Z,65.15
2023-03-01T00:11:07.905Z,65.54
2023-03-01T00:11:39.900Z,65.91
2023-03-01T00:12:12.125Z,66.59
2023-03-01T00:12:43.863Z,66.55
2023-03-01T00:13:15.531Z,66.99
2023-03-01T00:13:50.101Z,67.53
2023-03-01T00:14:21.941Z,67.16
2023-03-01T00:14:53.592Z,66.53
2023-03-01T00:15:25.268Z,66.42
2023-03-01T00:15:57.060Z,66.44
2023-03-01T00:16:43.893Z,66.52
2023-03-01T00:17:15.612Z,66.86
2023-03-01T00:17:47.272Z,66.78
2023-03-01T00:18:18.941Z,66.23
2023-03-01T00:18:51.654Z,65.95
2023-03-01T00:19:23.325Z,66.36
2023-03-01T00:19:54.946Z,66.81
2023-03-01T00:20:26.609Z,66.40
2023-03-01T00:20:58.342Z,66.73
2023-03-01T00:21:30.059Z,66.24
2023-03-01T00:22:01.741Z,65.93
2023-03-01T00:22:33.364Z,65.73
2023-03-01T00:23:05.022Z,66.60
2023-03-01T00:23:37.005Z,66.13
2023-03-01T00:24:09.587Z,66.72
2023-03-01T00:24:41.356Z,66.63
2023-03-01T00:25:13.013Z,66.27
2023-03-01T00:25:45.067Z,65.86
2023-03-01T00:26:18.752Z,66.08
2023-03-01T00:26:54.240Z,65.70
2023-03-01T00:27:25.917Z,66.64
2023-03-01T00:27:57.580Z,66.65
2023-03-01T00:28:29.241Z,65.62
2023-03-01T00:29:01.285Z,66.68
2023-03-01T00:29:33.006Z,66.18
2023-03-01T00:30:06.176Z,66.63
2023-03-01T00:30:38.047Z,66.48
2023-03-01T00:31:21.152Z,66.89
2023-03-01T00:31:53.014Z,66.74
2023-03-01T00:32:24.809Z,65.62
2023-03-01T00:32:56.455Z,65.29
2023-03-01T00:33:28.114Z,65.75
2023-03-01T00:34:02.743Z,66.20
2023-03-01T00:34:34.486Z,66.34
2023-03-01T00:35:06.782Z,66.32
2023-03-01T00:35:38.650Z,66.47
2023-03-01T00:36:12.489Z,66.61
2023-03-01T00:36:44.301Z,66.72
2023-03-01T00:37:15.921Z,67.47
2023-03-01T00:37:47.652Z,67.17
2023-03-01T00:38:19.357Z,67.31
2023-03-01T00:38:51.378Z,67.84
2023-03-01T00:39:23.035Z,68.25
2023-03-01T00:39:54.682Z,67.80
2023-03-01T00:40:28.260Z,68.50
2023-03-01T00:41:05.464Z,68.72
2023-03-01T00:41:37.108Z,68.66
2023-03-01T00:42:08.770Z,68.67
2023-03-01T00:42:40.396Z,68.41
2023-03-01T00:43:12.036Z,67.70
2023-03-01T00:43:45.323Z,68.47
2023-03-01T00:44:16.967Z,67.98
2023-03-01T00:44:48.843Z,68.32
2023-03-01T00:45:20.767Z,68.60
2023-03-01T00:45:52.433Z,68.59
2023-03-01T00:46:26.990Z,69.15
2023-03-01T00:46:58.710Z,69.18
2023-03-01T00:47:30.558Z,69.89
2023-03-01T00:48:02.304Z,69.88
2023-03-01T00:48:35.000Z,70.26
2023-03-01T00:49:06.780Z,69.87
2023-03-01T00:49:38.452Z,70.32
2023-03-01T00:50:11.055Z,69.58
2023-03-01T00:50:42.684Z,69.73
2023-03-01T00:51:26.626Z,69.63
2023-03-01T00:51:58.362Z,69.56
2023-03-01T00:52:29.988Z,69.28
2023-03-01T00:53:01.725Z,68.88
2023-03-01T00:53:34.015Z,69.23
2023-03-01T00:54:05.725Z,68.42
2023-03-01T00:54:37.376Z,68.00
2023-03-01T00:55:09.300Z,67.92
2023-03-01T00:55:40.934Z,67.59
2023-03-01T00:56:14.982Z,67.98
2023-03-01T00:56:46.659Z,67.71
2023-03-01T00:57:18.342Z,66.73
2023-03-01T00:57:50.063Z,67.30
2023-03-01T00:58:21.887Z,66.36
2023-03-01T00:58:53.545Z,66.47
2023-03-01T00:59:25.172Z,66.41
2023-03-01T00:59:57.014Z,65.68
2023-03-01T01:00:29.198Z,66.55
2023-03-01T01:01:01.065Z,67.39
2023-03-01T01:01:32.826Z,66.69
2023-03-01T01:02:04.574Z,67.90
2023-03-01T01:02:36.725Z,68.05
2023-03-01T01:03:08.396Z,68.16
2023-03-01T01:03:40.048Z,67.89
2023-03-01T01:04:14.276Z,68.10
2023-03-01T01:04:46.332Z,68.45
2023-03-01T01:05:21.810Z,69.06
2023-03-01T01:05:54.665Z,68.76
2023-03-01T01:06:48.361Z,69.60
2023-03-01T01:07:21.138Z,69.13
2023-03-01T01:07:52.815Z,68.60
2023-03-01T01:08:24.472Z,68.68
2023-03-01T01:08:56.896Z,69.06
2023-03-01T01:09:28.629Z,69.50
2023-03-01T01:10:00.376Z,68.98
2023-03-01T01:10:32.071Z,69.43
2023-03-01T01:11:03.775Z,69.16
2023-03-01T01:11:37.419Z,69.80
2023-03-01T01:12:09.350Z,69.07
2023-03-01T01:12:40.992Z,69.23
2023-03-01T01:13:13.179Z,69.24
2023-03-01T01:13:47.795Z,69.12
2023-03-01T01:14:20.293Z,69.89
2023-03-01T01:14:51.968Z,69.32
2023-03-01T01:15:23.601Z,70.14
2023-03-01T01:15:55.271Z,69.93
2023-03-01T01:16:29.310Z,69.14
2023-03-01T01:17:01.256Z,69.03
2023-03-01T01:17:32.991Z,68.93
2023-03-01T01:18:04.626Z,69.13
2023-03-01T01:18:36.778Z,69.72
2023-03-01T01:19:08.568Z,69.09
2023-03-01T01:19:40.348Z,68.98
2023-03-01T01:20:13.398Z,69.53
2023-03-01T01:20:44.999Z,69.24
2023-03-01T01:21:19.348Z,69.41
2023-03-01T01:21:51.036Z,68.64
2023-03-01T01:22:22.657Z,69.06
2023-03-01T01:22:54.682Z,69.28
2023-03-01T01:23:26.351Z,69.15
2023-03-01T01:23:58.673Z,69.50
2023-03-01T01:24:30.661Z,69.41
2023-03-01T01:25:02.358Z,69.04
2023-03-01T01:25:37.290Z,69.48
2023-03-01T01:26:31.186Z,69.12
2023-03-01T01:27:03.151Z,69.52
2023-03-01T01:27:34.862Z,68.92
2023-03-01T01:28:06.490Z,69.09
2023-03-01T01:28:38.545Z,68.78
2023-03-01T01:29:11.074Z,68.33
2023-03-01T01:29:43.127Z,68.72
2023-03-01T01:30:14.806Z,69.41
2023-03-01T01:30:46.509Z,68.97
2023-03-01T01:31:19.421Z,68.66
2023-03-01T01:31:51.178Z,69.28
2023-03-01T01:32:25.451Z,68.44
2023-03-01T01:32:58.382Z,68.92
2023-03-01T01:33:30.027Z,69.08
2023-03-01T01:34:03.760Z,68.67
2023-03-01T01:34:35.398Z,68.89
2023-03-01T01:35:07.335Z,69.20
2023-03-01T01:35:38.989Z,69.73
2023-03-01T01:36:11.383Z,69.75
2023-03-01T01:36:43.720Z,70.41
2023-03-01T01:37:15.400Z,70.23
2023-03-01T01:37:47.069Z,70.52
2023-03-01T01:38:18.725Z,69.84
2023-03-01T01:38:50.466Z,70.24
2023-03-01T01:39:23.107Z,70.09
2023-03-01T01:39:54.727Z,70.02
2023-03-01T01:40:26.381Z,70.47
2023-03-01T01:40:58.082Z,69.92
2023-03-01T01:41:30.211Z,70.17
2023-03-01T01:42:02.842Z,70.30
2023-03-01T01:42:34.488Z,70.46
2023-03-01T01:43:08.897Z,69.70
2023-03-01T01:43:45.700Z,70.54
2023-03-01T01:44:24.030Z,70.31
2023-03-01T01:45:26.384Z,69.67
2023-03-01T01:46:02.256Z,69.80
2023-03-01T01:46:39.828Z,69.42
2023-03-01T01:47:20.912Z,70.71
2023-03-01T01:47:55.649Z,70.10
2023-03-01T01:48:41.421Z,69.85
2023-03-01T01:49:25.353Z,69.14
2023-03-01T01:49:58.054Z,69.06
2023-03-01T01:50:38.722Z,69.31
2023-03-01T01:51:23.706Z,69.34
2023-03-01T01:52:02.947Z,69.02
2023-03-01T01:52:39.132Z,69.17
2023-03-01T01:53:16.108Z,69.18
2023-03-01T01:53:54.379Z,69.10
2023-03-01T01:54:34.096Z,68.53
2023-03-01T01:55:12.682Z,68.64
2023-03-01T01:55:48.411Z,68.85
2023-03-01T01:56:22.052Z,68.45
2023-03-01T01:56:59.979Z,68.57
2023-03-01T01:57:57.372Z,68.60
2023-03-01T01:58:31.530Z,69.14
2023-03-01T01:59:03.462Z,69.01
2023-03-01T01:59:35.650Z,68.75
2023-03-01T02:00:12.821Z,68.49
2023-03-01T02:00:44.707Z,69.14
2023-03-01T02:01:16.504Z,68.77
2023-03-01T02:01:48.183Z,69.12
2023-03-01T02:02:20.468Z,68.88
2023-03-01T02:02:58.991Z,69.58
2023-03-01T02:03:38.555Z,68.75
2023-03-01T02:04:10.748Z,69.44
2023-03-01T02:04:42.628Z,69.28
2023-03-01T02:06:09.499Z,69.47
2023-03-01T02:06:52.020Z,69.63
2023-03-01T02:07:25.729Z,70.04
2023-03-01T02:07:59.194Z,70.34
2023-03-01T02:08:34.224Z,70.25
2023-03-01T02:09:12.338Z,69.80
2023-03-01T02:09:48.960Z,70.36
2023-03-01T02:10:23.867Z,70.26
2023-03-01T02:10:57.212Z,69.96
2023-03-01T02:11:31.625Z,69.89
2023-03-01T02:12:05.277Z,69.98
2023-03-01T02:12:38.930Z,70.36
2023-03-01T02:13:11.815Z,70.43
2023-03-01T02:13:44.003Z,70.80
2023-03-01T02:14:17.106Z,70.79
2023-03-01T02:14:48.810Z,70.70
2023-03-01T02:15:20.520Z,70.34
2023-03-01T02:15:52.467Z,70.32
2023-03-01T02:16:24.269Z,70.00
2023-03-01T02:16:56.512Z,69.71
2023-03-01T02:17:28.531Z,69.60
2023-03-01T02:18:00.630Z,69.69
2023-03-01T02:18:32.335Z,68.99
2023-03-01T02:19:06.249Z,68.64
2023-03-01T02:19:40.445Z,68.80
2023-03-01T02:20:33.207Z,68.92
2023-03-01T02:21:07.613Z,69.47
2023-03-01T02:22:07.412Z,69.49
2023-03-01T02:22:40.445Z,69.08
2023-03-01T02:23:12.276Z,68.48
2023-03-01T02:23:44.512Z,68.61
2023-03-01T02:24:37.441Z,68.95
2023-03-01T02:25:09.340Z,68.64
2023-03-01T02:26:05.631Z,69.44
2023-03-01T02:26:47.712Z,69.92
2023-03-01T02:27:27.178Z,70.49
2023-03-01T02:28:16.962Z,70.63
2023-03-01T02:28:48.952Z,70.63
2023-03-01T02:29:21.875Z,70.59
2023-03-01T02:29:53.591Z,71.37
2023-03-01T02:30:26.711Z,71.22
2023-03-01T02:31:17.438Z,70.78
2023-03-01T02:31:52.328Z,70.63
2023-03-01T02:32:26.177Z,71.31
2023-03-01T02:33:05.520Z,71.09
2023-03-01T02:33:40.067Z,70.73
2023-03-01T02:34:19.494Z,71.31
2023-03-01T02:34:56.672Z,71.33
2023-03-01T02:35:28.538Z,72.13
2023-03-01T02:36:02.808Z,71.57
2023-03-01T02:36:54.820Z,71.09
2023-03-01T02:37:28.319Z,71.06
2023-03-01T02:38:02.627Z,70.64
2023-03-01T02:38:34.551Z,70.93
2023-03-01T02:39:15.443Z,70.61
2023-03-01T02:39:51.590Z,71.66
2023-03-01T02:40:24.105Z,71.48
2023-03-01T02:40:57.876Z,71.25
2023-03-01T02:41:36.353Z,71.42
2023-03-01T02:42:08.489Z,70.24
2023-03-01T02:42:59.977Z,69.46
2023-03-01T02:43:33.888Z,69.14
2023-03-01T02:44:06.712Z,69.18
2023-03-01T02:44:38.341Z,69.02
2023-03-01T02:45:11.729Z,69.19
2023-03-01T02:45:53.864Z,69.37
2023-03-01T02:46:27.179Z,69.92
2023-03-01T02:47:04.176Z,69.35
2023-03-01T02:47:35.814Z,69.52
2023-03-01T02:48:07.582Z,69.29
2023-03-01T02:48:48.651Z,68.69
2023-03-01T02:49:29.908Z,68.14
2023-03-01T02:50:01.580Z,68.32
2023-03-01T02:51:27.716Z,68.34
2023-03-01T02:52:09.716Z,67.90
2023-03-01T02:53:02.422Z,67.94
2023-03-01T02:53:52.036Z,68.68
2023-03-01T02:54:36.421Z,68.05
2023-03-01T02:55:08.445Z,68.92
2023-03-01T02:55:40.980Z,68.47
2023-03-01T02:56:14.020Z,68.57
2023-03-01T02:56:49.865Z,68.48
2023-03-01T02:57:24.211Z,69.10
2023-03-01T02:57:57.964Z,68.68
2023-03-01T02:58:29.645Z,69.01
2023-03-01T02:59:01.783Z,69.11
2023-03-01T02:59:40.413Z,68.97
2023-03-01T03:00:23.971Z,69.63
2023-03-01T03:00:57.711Z,69.13
2023-03-01T03:01:38.379Z,70.02
2023-03-01T03:02:37.211Z,70.25
2023-03-01T03:03:09.131Z,70.89
2023-03-01T03:03:40.841Z,70.84
2023-03-01T03:04:19.094Z,70.26
2023-03-01T03:04:50.749Z,70.32
2023-03-01T03:05:25.340Z,70.28
2023-03-01T03:05:57.002Z,70.35
2023-03-01T03:06:28.777Z,70.73
2023-03-01T03:07:00.539Z,71.17
2023-03-01T03:07:32.184Z,71.35
2023-03-01T03:08:04.721Z,70.64
2023-03-01T03:08:36.577Z,71.53
2023-03-01T03:09:09.059Z,70.80
2023-03-01T03:09:40.716Z,71.76
2023-03-01T03:10:16.587Z,71.66
2023-03-01T03:10:48.214Z,71.46
2023-03-01T03:11:19.902Z,71.39
2023-03-01T03:11:51.536Z,71.78
2023-03-01T03:12:23.178Z,72.31
2023-03-01T03:13:15.509Z,72.20
2023-03-01T03:13:49.150Z,72.33
2023-03-01T03:14:20.979Z,72.02
2023-03-01T03:14:52.649Z,72.19
2023-03-01T03:15:25.905Z,72.19
2023-03-01T03:15:58.240Z,71.73
2023-03-01T03:16:31.013Z,72.14
2023-03-01T03:17:08.053Z,72.15
2023-03-01T03:17:44.123Z,71.98
2023-03-01T03:18:18.652Z,71.44
2023-03-01T03:18:50.588Z,71.52
2023-03-01T03:19:22.330Z,70.90
2023-03-01T03:19:54.079Z,71.15
2023-03-01T03:20:28.350Z,71.56
2023-03-01T03:21:00.064Z,71.38
2023-03-01T03:21:33.856Z,71.22
2023-03-01T03:22:05.500Z,71.42
2023-03-01T03:22:37.306Z,71.70
2023-03-01T03:23:09.029Z,71.46
2023-03-01T03:23:40.716Z,72.33
2023-03-01T03:24:12.449Z,72.48
2023-03-01T03:24:44.073Z,71.79
2023-03-01T03:25:17.488Z,71.98
2023-03-01T03:25:52.992Z,72.16
2023-03-01T03:26:25.070Z,72.30
2023-03-01T03:26:56.710Z,71.52
2023-03-01T03:27:29.467Z,71.65
2023-03-01T03:28:01.159Z,71.31
2023-03-01T03:28:34.579Z,72.29
2023-03-01T03:29:06.289Z,72.26
2023-03-01T03:29:37.946Z,72.36
2023-03-01T03:30:12.899Z,71.66
2023-03-01T03:30:45.065Z,72.26
2023-03-01T03:31:16.873Z,72.72
2023-03-01T03:31:48.680Z,72.28
2023-03-01T03:32:20.496Z,72.39
2023-03-01T03:32:54.876Z,71.96
2023-03-01T03:33:26.524Z,72.23
2023-03-01T03:33:59.968Z,72.26
2023-03-01T03:34:31.748Z,72.59
2023-03-01T03:35:10.357Z,71.98
2023-03-01T03:35:45.477Z,71.27
2023-03-01T03:36:22.650Z,71.75
2023-03-01T03:37:00.360Z,71.66
2023-03-01T03:37:50.576Z,71.38
2023-03-01T03:38:22.866Z,70.64
2023-03-01T03:38:54.608Z,70.79
2023-03-01T03:39:28.169Z,70.26
2023-03-01T03:39:59.991Z,70.81
2023-03-01T03:40:33.320Z,71.51
2023-03-01T03:41:08.335Z,71.91
2023-03-01T03:41:40.049Z,72.31
2023-03-01T03:42:12.005Z,71.61
2023-03-01T03:42:43.862Z,71.35
2023-03-01T03:43:22.303Z,71.90
2023-03-01T03:43:53.944Z,72.10
2023-03-01T03:44:25.605Z,71.98
2023-03-01T03:44:57.275Z,72.26
2023-03-01T03:45:28.905Z,72.18
2023-03-01T03:46:01.609Z,71.32
2023-03-01T03:46:33.790Z,71.76
2023-03-01T03:47:05.632Z,71.22
2023-03-01T03:47:37.335Z,71.14
2023-03-01T03:48:11.029Z,71.05
2023-03-01T03:48:45.297Z,71.46
2023-03-01T03:49:17.029Z,72.18
2023-03-01T03:49:48.675Z,71.71
2023-03-01T03:50:20.357Z,71.44
2023-03-01T03:50:54.836Z,72.25
2023-03-01T03:51:26.452Z,72.16
2023-03-01T03:51:58.218Z,72.06
2023-03-01T03:52:29.875Z,71.74
2023-03-01T03:53:02.961Z,71.48
2023-03-01T03:53:34.790Z,71.23
2023-03-01T03:54:06.485Z,71.99
2023-03-01T03:54:38.158Z,72.05
2023-03-01T03:55:12.150Z,71.58
2023-03-01T03:55:45.410Z,71.53
2023-03-01T03:56:17.097Z,71.91
2023-03-01T03:56:48.711Z,72.14
2023-03-01T03:57:20.338Z,71.65
2023-03-01T03:57:55.111Z,71.50
2023-03-01T03:58:27.384Z,72.42
2023-03-01T03:58:59.092Z,71.09
2023-03-01T03:59:30.743Z,71.53
2023-03-01T04:00:05.763Z,71.27
2023-03-01T04:00:44.187Z,71.04
2023-03-01T04:01:15.844Z,71.14
2023-03-01T04:01:47.625Z,71.30
2023-03-01T04:02:23.212Z,71.27
2023-03-01T04:02:57.811Z,72.14
2023-03-01T04:03:31.252Z,72.13
2023-03-01T04:04:05.199Z,72.66
2023-03-01T04:04:37.031Z,72.13
2023-03-01T04:05:11.137Z,72.58
2023-03-01T04:05:43.162Z,72.36
2023-03-01T04:06:15.667Z,72.31
2023-03-01T04:06:47.326Z,72.49
2023-03-01T04:07:18.993Z,72.68
2023-03-01T04:08:02.094Z,72.81
2023-03-01T04:08:34.380Z,72.66
2023-03-01T04:09:06.028Z,72.49
2023-03-01T04:09:37.689Z,72.19
2023-03-01T04:10:17.996Z,72.17
2023-03-01T04:10:53.195Z,72.54
2023-03-01T04:11:27.677Z,71.94
2023-03-01T04:11:59.329Z,71.93
2023-03-01T04:12:31.099Z,71.82
2023-03-01T04:13:03.020Z,71.26
2023-03-01T04:13:34.650Z,71.62
2023-03-01T04:14:06.315Z,71.26
2023-03-01T04:14:38.070Z,71.18
2023-03-01T04:15:16.235Z,71.83
2023-03-01T04:15:50.234Z,71.34
2023-03-01T04:16:22.161Z,71.37
2023-03-01T04:16:53.856Z,71.56
2023-03-01T04:17:25.632Z,72.13
2023-03-01T04:17:57.352Z,71.65
2023-03-01T04:18:29.011Z,71.80
2023-03-01T04:19:01.534Z,71.85
2023-03-01T04:19:37.072Z,72.12
2023-03-01T04:20:12.110Z,71.89
2023-03-01T04:20:44.188Z,71.74
2023-03-01T04:21:16.289Z,71.71
2023-03-01T04:21:47.924Z,72.08
2023-03-01T04:22:19.765Z,72.34
2023-03-01T04:22:59.433Z,71.46
2023-03-01T04:23:31.175Z,71.65
2023-03-01T04:24:04.691Z,71.94
2023-03-01T04:24:36.968Z,71.50
2023-03-01T04:25:08.960Z,72.07
2023-03-01T04:25:43.119Z,71.94
2023-03-01T04:26:14.848Z,71.26
2023-03-01T04:26:46.510Z,72.25
2023-03-01T04:27:18.187Z,72.04
2023-03-01T04:27:49.896Z,72.55
2023-03-01T04:28:36.912Z,71.67
2023-03-01T04:29:08.563Z,72.04
2023-03-01T04:29:40.193Z,71.60
2023-03-01T04:30:12.266Z,72.16
2023-03-01T04:30:43.969Z,71.49
2023-03-01T04:31:19.420Z,71.81
2023-03-01T04:31:51.331Z,72.48
2023-03-01T04:32:23.063Z,72.39
2023-03-01T04:32:54.773Z,72.26
2023-03-01T04:33:26.822Z,72.34
2023-03-01T04:33:58.515Z,72.78
2023-03-01T04:34:31.054Z,71.78
2023-03-01T04:35:02.786Z,72.38
2023-03-01T04:35:36.186Z,71.83
2023-03-01T04:36:09.846Z,72.69
2023-03-01T04:36:41.617Z,72.29
2023-03-01T04:37:13.315Z,72.47
2023-03-01T04:37:46.079Z,72.34
2023-03-01T04:38:19.328Z,72.42
2023-03-01T04:38:51.301Z,71.71
2023-03-01T04:39:22.971Z,72.07
2023-03-01T04:39:54.697Z,71.95
2023-03-01T04:40:26.483Z,72.57
2023-03-01T04:40:58.095Z,72.27
2023-03-01T04:41:29.770Z,72.46
2023-03-01T04:42:01.583Z,71.94
2023-03-01T04:42:33.750Z,72.32
2023-03-01T04:43:05.596Z,72.26
2023-03-01T04:43:38.083Z,72.37
2023-03-01T04:44:10.486Z,72.08
2023-03-01T04:44:42.136Z,71.67
2023-03-01T04:45:14.140Z,71.69
2023-03-01T04:45:46.113Z,72.12
2023-03-01T04:46:20.069Z,72.13
2023-03-01T04:46:51.777Z,71.59
2023-03-01T04:47:23.420Z,71.05
2023-03-01T04:47:55.071Z,71.93
2023-03-01T04:48:26.717Z,71.28
2023-03-01T04:48:58.558Z,70.59
2023-03-01T04:49:30.485Z,70.31
2023-03-01T04:50:02.142Z,71.00
2023-03-01T04:50:34.142Z,70.83
2023-03-01T04:51:06.726Z,70.91
2023-03-01T04:51:38.734Z,70.57
2023-03-01T04:52:10.407Z,70.79
2023-03-01T04:52:42.473Z,70.10
2023-03-01T04:53:14.120Z,71.03
2023-03-01T04:53:45.822Z,71.61
2023-03-01T04:54:17.450Z,71.34
2023-03-01T04:54:49.118Z,71.58
2023-03-01T04:55:20.812Z,71.45
2023-03-01T04:55:52.494Z,71.75
2023-03-01T04:56:24.253Z,72.41
2023-03-01T04:56:56.055Z,72.31
2023-03-01T04:57:27.710Z,71.77
2023-03-01T04:57:59.792Z,71.94
2023-03-01T04:58:31.660Z,72.31
2023-03-01T04:59:06.719Z,71.63
2023-03-01T04:59:38.355Z,72.01
2023-03-01T05:00:22.975Z,72.27
2023-03-01T05:00:55.549Z,72.49
2023-03-01T05:01:27.213Z,72.64
2023-03-01T05:01:58.884Z,72.04
2023-03-01T05:02:30.567Z,72.50
2023-03-01T05:03:02.358Z,72.31
2023-03-01T05:03:33.991Z,72.18
2023-03-01T05:04:06.521Z,72.85
2023-03-01T05:04:38.197Z,72.50
2023-03-01T05:05:09.889Z,72.78
2023-03-01T05:05:41.768Z,72.27
2023-03-01T05:06:14.499Z,72.43
2023-03-01T05:06:46.116Z,72.58
2023-03-01T05:07:20.309Z,71.87
2023-03-01T05:07:59.947Z,71.95
2023-03-01T05:08:35.215Z,71.80
2023-03-01T05:09:06.931Z,71.83
2023-03-01T05:09:39.418Z,72.15
2023-03-01T05:10:11.526Z,71.92
2023-03-01T05:10:43.184Z,71.12
2023-03-01T05:11:14.952Z,70.44
2023-03-01T05:11:46.782Z,70.10
2023-03-01T05:12:18.429Z,70.67
2023-03-01T05:12:50.077Z,70.84
2023-03-01T05:13:22.440Z,70.57
2023-03-01T05:13:55.999Z,70.70
2023-03-01T05:14:27.800Z,70.11
2023-03-01T05:14:59.503Z,70.48
2023-03-01T05:15:32.490Z,70.50
2023-03-01T05:16:05.669Z,70.37
2023-03-01T05:16:38.267Z,71.15
2023-03-01T05:17:10.065Z,71.12
2023-03-01T05:17:41.745Z,71.28
2023-03-01T05:18:13.434Z,71.35
2023-03-01T05:18:45.114Z,70.46
2023-03-01T05:19:16.818Z,71.12
2023-03-01T05:19:48.483Z,69.94
2023-03-01T05:20:23.857Z,69.23
2023-03-01T05:20:59.465Z,69.51
2023-03-01T05:21:31.242Z,69.09
2023-03-01T05:22:02.979Z,69.49
2023-03-01T05:22:34.723Z,69.10
2023-03-01T05:23:06.565Z,69.16
2023-03-01T05:23:38.816Z,68.71
2023-03-01T05:24:12.728Z,69.13
2023-03-01T05:24:44.380Z,68.10
2023-03-01T05:25:16.605Z,69.20
2023-03-01T05:25:48.452Z,69.32
2023-03-01T05:26:28.289Z,68.79
2023-03-01T05:27:11.109Z,68.38
2023-03-01T05:27:42.745Z,68.81
2023-03-01T05:28:15.111Z,68.32
2023-03-01T05:28:46.905Z,67.88
2023-03-01T05:29:25.884Z,68.31
2023-03-01T05:29:57.740Z,68.21
2023-03-01T05:30:29.408Z,68.13
2023-03-01T05:31:01.388Z,67.78
2023-03-01T05:31:33.272Z,68.44
2023-03-01T05:32:05.307Z,67.46
2023-03-01T05:32:36.924Z,68.45
2023-03-01T05:33:14.393Z,67.64
2023-03-01T05:33:46.500Z,67.68
2023-03-01T05:34:18.133Z,68.78
2023-03-01T05:34:49.768Z,68.45
2023-03-01T05:35:21.487Z,68.02
2023-03-01T05:35:54.523Z,67.88
2023-03-01T05:36:26.209Z,68.56
2023-03-01T05:36:58.009Z,68.19
2023-03-01T05:37:29.871Z,67.39
2023-03-01T05:38:01.655Z,68.19
2023-03-01T05:38:33.368Z,67.78
2023-03-01T05:39:05.795Z,68.13
2023-03-01T05:39:37.527Z,67.45
2023-03-01T05:40:16.515Z,67.75
2023-03-01T05:40:49.441Z,67.93
2023-03-01T05:41:21.115Z,67.27
2023-03-01T05:41:58.381Z,66.70
2023-03-01T05:42:30.045Z,66.62
2023-03-01T05:43:01.775Z,66.18
2023-03-01T05:43:36.522Z,66.77
2023-03-01T05:44:08.295Z,66.56
2023-03-01T05:44:39.983Z,65.41
2023-03-01T05:45:13.445Z,66.31
2023-03-01T05:45:45.183Z,65.89
2023-03-01T05:46:16.847Z,65.51
2023-03-01T05:46:48.592Z,65.95
2023-03-01T05:47:22.227Z,66.05
2023-03-01T05:47:56.031Z,66.53
2023-03-01T05:48:27.736Z,66.75
2023-03-01T05:48:59.424Z,78.53
2023-03-01T05:49:32.490Z,86.14
2023-03-01T05:50:04.379Z,86.09
2023-03-01T05:50:41.997Z,72.13
2023-03-01T05:51:13.654Z,67.21
2023-03-01T05:51:49.896Z,67.03
2023-03-01T05:52:21.539Z,66.06
2023-03-01T05:53:01.850Z,65.56
2023-03-01T05:53:33.563Z,65.45
2023-03-01T05:54:06.911Z,65.27
2023-03-01T05:54:38.871Z,65.51
2023-03-01T05:55:10.940Z,65.33
2023-03-01T05:55:44.037Z,65.47
2023-03-01T05:56:15.695Z,65.28
2023-03-01T05:56:47.934Z,64.95
2023-03-01T05:57:19.559Z,65.23
2023-03-01T05:57:52.151Z,64.28
2023-03-01T05:58:23.861Z,64.48
2023-03-01T05:58:55.790Z,65.61
2023-03-01T05:59:27.469Z,65.18
2023-03-01T05:59:59.111Z,65.15
2023-03-01T06:00:32.120Z,65.22
2023-03-01T06:01:03.829Z,65.31
2023-03-01T06:01:36.464Z,65.63
2023-03-01T06:02:08.113Z,64.84
2023-03-01T06:02:40.948Z,65.40
2023-03-01T06:03:14.156Z,64.78
2023-03-01T06:03:45.799Z,65.58
2023-03-01T06:04:17.472Z,64.48
2023-03-01T06:04:49.224Z,64.67
2023-03-01T06:05:21.284Z,65.21
2023-03-01T06:05:59.144Z,64.88
2023-03-01T06:06:34.510Z,64.99
2023-03-01T06:07:06.437Z,65.73
2023-03-01T06:07:38.414Z,65.81
2023-03-01T06:08:12.244Z,65.17
2023-03-01T06:08:43.919Z,65.76
2023-03-01T06:09:15.622Z,65.72
2023-03-01T06:09:47.279Z,65.08
2023-03-01T06:10:20.933Z,65.96
2023-03-01T06:10:52.544Z,65.27
2023-03-01T06:11:24.293Z,65.68
2023-03-01T06:11:55.918Z,65.67
2023-03-01T06:12:27.636Z,65.19
2023-03-01T06:12:59.907Z,65.14
2023-03-01T06:13:31.647Z,65.60
2023-03-01T06:14:03.952Z,65.48
2023-03-01T06:14:35.653Z,65.79
2023-03-01T06:15:10.745Z,65.80
2023-03-01T06:15:42.463Z,65.62
2023-03-01T06:16:15.144Z,66.07
2023-03-01T06:16:46.825Z,66.46
2023-03-01T06:17:18.474Z,66.17
2023-03-01T06:17:51.256Z,66.57
2023-03-01T06:18:22.902Z,65.66
2023-03-01T06:18:54.574Z,65.28
2023-03-01T06:19:26.187Z,65.58
2023-03-01T06:19:57.980Z,65.26
2023-03-01T06:20:30.469Z,66.23
2023-03-01T06:21:02.352Z,66.42
2023-03-01T06:21:34.007Z,66.45
2023-03-01T06:22:05.661Z,67.11
2023-03-01T06:22:37.452Z,67.04
2023-03-01T06:23:09.850Z,67.13
2023-03-01T06:23:42.351Z,67.27
2023-03-01T06:24:14.044Z,66.53
2023-03-01T06:24:45.716Z,67.05
2023-03-01T06:25:20.331Z,66.63
2023-03-01T06:25:52.108Z,67.20
2023-03-01T06:26:24.339Z,65.81
2023-03-01T06:26:56.707Z,66.22
2023-03-01T06:27:28.556Z,66.49
2023-03-01T06:28:00.218Z,65.79
2023-03-01T06:28:31.870Z,66.18
2023-03-01T06:29:03.521Z,66.29
2023-03-01T06:29:35.288Z,66.40
2023-03-01T06:30:08.963Z,66.09
2023-03-01T06:30:40.610Z,66.22
2023-03-01T06:31:12.594Z,65.82
2023-03-01T06:31:44.293Z,65.43
2023-03-01T06:32:16.064Z,66.24
2023-03-01T06:32:48.876Z,66.36
2023-03-01T06:33:25.302Z,65.43
2023-03-01T06:33:56.951Z,65.08
2023-03-01T06:34:28.855Z,65.46
2023-03-01T06:35:00.557Z,65.23
2023-03-01T06:35:32.988Z,65.60
2023-03-01T06:36:05.011Z,72.69
2023-03-01T06:36:36.658Z,67.49
2023-03-01T06:37:09.180Z,65.86
2023-03-01T06:37:41.907Z,65.12
2023-03-01T06:38:15.933Z,65.19
2023-03-01T06:38:47.786Z,64.68
2023-03-01T06:39:19.456Z,65.02
2023-03-01T06:39:51.205Z,64.49
2023-03-01T06:40:23.097Z,65.02
2023-03-01T06:40:57.478Z,64.21
2023-03-01T06:41:29.129Z,64.27
2023-03-01T06:42:01.200Z,64.90
2023-03-01T06:42:32.856Z,64.46
2023-03-01T06:43:04.587Z,65.38
2023-03-01T06:43:36.601Z,64.45
2023-03-01T06:44:08.281Z,64.93
2023-03-01T06:44:39.980Z,64.69
2023-03-01T06:45:12.528Z,64.94
2023-03-01T06:45:44.164Z,65.07
2023-03-01T06:46:15.939Z,65.39
2023-03-01T06:46:47.935Z,65.20
2023-03-01T06:47:19.594Z,65.11
2023-03-01T06:47:51.757Z,64.94
2023-03-01T06:48:23.375Z,64.59
2023-03-01T06:48:55.030Z,65.30
2023-03-01T06:49:26.858Z,65.13
2023-03-01T06:49:58.516Z,65.05
2023-03-01T06:50:30.280Z,65.15
2023-03-01T06:51:02.589Z,64.64
2023-03-01T06:51:34.314Z,64.64
2023-03-01T06:52:05.944Z,64.96
2023-03-01T06:52:37.646Z,64.72
2023-03-01T06:53:09.335Z,64.53
2023-03-01T06:53:41.006Z,64.57
2023-03-01T06:54:13.185Z,64.91
2023-03-01T06:54:44.849Z,64.62
2023-03-01T06:55:16.487Z,64.88
2023-03-01T06:55:48.159Z,64.60
2023-03-01T06:56:19.778Z,65.17
2023-03-01T06:56:51.693Z,64.60
2023-03-01T06:57:23.388Z,64.92
2023-03-01T06:57:57.259Z,65.21
2023-03-01T06:58:29.267Z,65.03
2023-03-01T06:59:00.986Z,64.20
2023-03-01T06:59:32.650Z,64.46
2023-03-01T07:00:05.417Z,64.49
2023-03-01T07:00:37.074Z,63.76
2023-03-01T07:01:10.353Z,63.73
2023-03-01T07:01:42.029Z,63.90
2023-03-01T07:02:15.116Z,64.15
2023-03-01T07:02:46.805Z,64.20
2023-03-01T07:03:19.940Z,64.88
2023-03-01T07:03:51.607Z,63.90
2023-03-01T07:04:23.263Z,64.57
2023-03-01T07:04:55.073Z,63.97
2023-03-01T07:05:26.755Z,64.61
2023-03-01T07:05:58.433Z,64.73
2023-03-01T07:06:30.319Z,64.60
2023-03-01T07:07:02.368Z,64.48
2023-03-01T07:07:34.066Z,64.07
2023-03-01T07:08:06.102Z,63.97
2023-03-01T07:08:37.792Z,64.62
2023-03-01T07:09:09.446Z,64.08
2023-03-01T07:09:41.109Z,64.49
2023-03-01T07:10:13.065Z,64.37
2023-03-01T07:10:44.762Z,64.35
2023-03-01T07:11:16.982Z,64.51
2023-03-01T07:11:48.948Z,64.16
2023-03-01T07:12:20.578Z,64.32